Kezdőlap
METAR-TAF:

METAR-TAF

Repülőterek :

Logan County Airport

Lincoln, Illinois, Amerikai Egyesült Államok

földrajzi szélesség: 40-09-31N, földrajzi hosszúság: 089-20-06W, magasság: 182 m

Jelenlegi meteorológiai megfigyelések

A jelentés 31 perccel ezelõtt készült, 15:35 UTC
Észak-északkeleti szél 11 kt
Hőmérséklet 13°C
Páratartalom 44%
Légköri nyomás 1028 hPa
Látótávolság: 16.1 km
Derült ég

METAR: KAAA 111535Z AUTO 02011KT 10SM CLR 13/01 A3035 RMK AO2 T01290006

Idő: 11:06 (16:06 UTC)


TAF: hiányzik

Meteorológiai megfigyelések és előrejelzések több, mint 4000 repülőtéren (METAR és TAF jelentéseket).

A térképen piros és sárga pontok jelzik az elérhető meteorológiai állomásokat.

Mozgassa az egeret a pont fölött, hogy megjelenjen az állomás neve.

Azután kattintson az időjárási megfigyelések és előrejelzések megtekintéséhez.

A térkép megváltoztatása: kattintson a fekete keresztel jelölt zöld gombra ráközelítéshez, a vonallal jelölt zöld gombra távolításhoz, vagy a zöld nyilakra a szomszédos térképek eléréséhez.


METAR-TAF: